createdAt,value
2017-08-02T00:00:25.312Z,66.80
2017-08-02T00:02:51.852Z,66.80
2017-08-02T00:05:18.366Z,66.30
2017-08-02T00:07:44.830Z,66.90
2017-08-02T00:10:11.518Z,66.30
2017-08-02T00:12:37.979Z,66.80
2017-08-02T00:15:04.470Z,66.70
2017-08-02T00:17:30.993Z,66.70
2017-08-02T00:19:58.194Z,67.40
2017-08-02T00:22:24.741Z,66.70
2017-08-02T00:24:52.358Z,66.10
2017-08-02T00:27:18.853Z,66.70
2017-08-02T00:29:45.320Z,66.70
2017-08-02T00:32:12.603Z,66.40
2017-08-02T00:34:39.062Z,66.70
2017-08-02T00:37:06.305Z,66.10
2017-08-02T00:39:33.563Z,66.10
2017-08-02T00:42:00.781Z,67.40
2017-08-02T00:44:27.066Z,66.60
2017-08-02T00:46:53.491Z,66.60
2017-08-02T00:49:20.500Z,67.20
2017-08-02T00:51:46.965Z,67.20
2017-08-02T00:54:13.419Z,66.60
2017-08-02T00:56:40.002Z,66.60
2017-08-02T00:59:06.492Z,66.60
2017-08-02T01:01:32.970Z,66.60
2017-08-02T01:04:00.206Z,67.40
2017-08-02T01:06:27.418Z,67.70
2017-08-02T01:08:54.051Z,67.60
2017-08-02T01:11:20.559Z,67.40
2017-08-02T01:13:47.011Z,67.50
2017-08-02T01:16:13.495Z,67.10
2017-08-02T01:18:39.945Z,66.50
2017-08-02T01:21:06.393Z,67.00
2017-08-02T01:23:32.874Z,66.60
2017-08-02T01:25:59.366Z,70.30
2017-08-02T01:28:26.078Z,71.30
2017-08-02T01:30:52.577Z,72.90
2017-08-02T01:33:19.426Z,71.70
2017-08-02T01:35:45.921Z,70.10
2017-08-02T01:38:12.366Z,69.90
2017-08-02T01:40:38.901Z,69.30
2017-08-02T01:43:05.376Z,68.90
2017-08-02T01:45:31.869Z,68.90
2017-08-02T01:47:58.354Z,68.50
2017-08-02T01:50:24.862Z,68.10
2017-08-02T01:52:51.313Z,67.70
2017-08-02T01:55:18.530Z,68.10
2017-08-02T01:57:45.013Z,68.10
2017-08-02T02:00:11.513Z,67.40
2017-08-02T02:02:37.965Z,67.80
2017-08-02T02:05:05.185Z,67.40
2017-08-02T02:07:31.646Z,67.40
2017-08-02T02:09:58.098Z,67.40
2017-08-02T02:12:24.574Z,67.70
2017-08-02T02:14:51.028Z,67.30
2017-08-02T02:17:17.510Z,67.60
2017-08-02T02:19:44.725Z,67.30
2017-08-02T02:22:11.246Z,67.20
2017-08-02T02:24:38.066Z,67.50
2017-08-02T02:27:04.549Z,67.30
2017-08-02T02:29:31.080Z,68.60
2017-08-02T02:31:57.658Z,67.90
2017-08-02T02:34:24.200Z,67.70
2017-08-02T02:36:50.694Z,67.80
2017-08-02T02:39:17.927Z,67.30
2017-08-02T02:41:44.451Z,67.20
2017-08-02T02:44:11.726Z,67.50
2017-08-02T02:46:38.241Z,67.30
2017-08-02T02:49:04.754Z,68.60
2017-08-02T02:51:31.241Z,70.60
2017-08-02T02:53:57.724Z,70.30
2017-08-02T02:56:24.196Z,69.70
2017-08-02T02:58:51.426Z,67.90
2017-08-02T03:01:17.924Z,67.80
2017-08-02T03:03:59.160Z,67.70
2017-08-02T03:06:25.441Z,68.00
2017-08-02T03:08:51.741Z,68.00
2017-08-02T03:11:17.998Z,67.90
2017-08-02T03:13:44.256Z,67.70
2017-08-02T03:16:10.528Z,68.30
2017-08-02T03:18:36.786Z,68.20
2017-08-02T03:21:03.862Z,69.30
2017-08-02T03:23:30.147Z,69.30
2017-08-02T03:25:57.161Z,71.90
2017-08-02T03:28:23.409Z,71.90
2017-08-02T03:30:49.704Z,71.10
2017-08-02T03:33:16.699Z,73.30
2017-08-02T03:35:42.933Z,73.20
2017-08-02T03:38:09.216Z,73.20
2017-08-02T03:40:35.475Z,71.30
2017-08-02T03:43:01.732Z,71.10
2017-08-02T03:45:27.982Z,71.60
2017-08-02T03:47:54.312Z,70.90
2017-08-02T03:50:21.313Z,70.90
2017-08-02T03:52:47.572Z,70.10
2017-08-02T03:55:14.887Z,70.30
2017-08-02T03:57:41.145Z,70.20
2017-08-02T04:00:07.467Z,70.50
2017-08-02T04:02:33.737Z,70.60
2017-08-02T04:05:00.745Z,71.80
2017-08-02T04:07:27.149Z,71.30
2017-08-02T04:09:53.449Z,72.50
2017-08-02T04:12:19.685Z,70.90
2017-08-02T04:14:46.018Z,70.80
2017-08-02T04:17:12.296Z,70.50
2017-08-02T04:19:38.560Z,70.90
2017-08-02T04:22:04.820Z,70.80
2017-08-02T04:24:31.102Z,71.00
2017-08-02T04:26:57.380Z,69.70
2017-08-02T04:29:23.639Z,69.40
2017-08-02T04:31:49.923Z,69.00
2017-08-02T04:34:16.930Z,68.10
2017-08-02T04:36:43.214Z,68.10
2017-08-02T04:39:09.501Z,68.10
2017-08-02T04:41:36.547Z,69.00
2017-08-02T04:44:02.806Z,69.00
2017-08-02T04:46:29.057Z,69.90
2017-08-02T04:48:56.075Z,70.00
2017-08-02T04:51:22.492Z,69.90
2017-08-02T04:53:49.032Z,69.60
2017-08-02T04:56:15.610Z,69.30
2017-08-02T04:58:42.889Z,68.50
2017-08-02T05:01:09.389Z,68.50
2017-08-02T05:03:35.870Z,68.00
2017-08-02T05:06:02.381Z,67.90
2017-08-02T05:08:28.862Z,67.60
2017-08-02T05:10:55.367Z,66.80
2017-08-02T05:13:21.942Z,66.90
2017-08-02T05:15:48.352Z,66.60
2017-08-02T05:18:14.878Z,67.10
2017-08-02T05:20:41.503Z,67.50
2017-08-02T05:23:08.016Z,67.50
2017-08-02T05:25:34.622Z,67.60
2017-08-02T05:28:01.154Z,67.90
2017-08-02T05:30:27.684Z,66.90
2017-08-02T05:32:54.186Z,67.70
2017-08-02T05:35:20.933Z,66.70
2017-08-02T05:37:47.441Z,66.40
2017-08-02T05:40:13.957Z,66.30
2017-08-02T05:42:41.257Z,66.50
2017-08-02T05:45:07.843Z,66.10
2017-08-02T05:47:34.344Z,69.20
2017-08-02T05:50:00.878Z,69.00
2017-08-02T05:52:27.448Z,67.30
2017-08-02T05:54:53.974Z,67.60
2017-08-02T05:57:20.519Z,67.40
2017-08-02T05:59:47.758Z,66.30
2017-08-02T06:02:14.272Z,66.20
2017-08-02T06:04:40.770Z,66.30
2017-08-02T06:07:07.235Z,66.50
2017-08-02T06:09:33.735Z,66.60
2017-08-02T06:12:00.235Z,65.60
2017-08-02T06:14:26.746Z,67.10
2017-08-02T06:16:54.390Z,67.90
2017-08-02T06:19:21.119Z,67.10
2017-08-02T06:21:47.676Z,67.20
2017-08-02T06:24:14.207Z,67.00
2017-08-02T06:26:40.709Z,67.30
2017-08-02T06:29:07.822Z,67.60
2017-08-02T06:31:34.334Z,67.60
2017-08-02T06:34:00.819Z,68.20
2017-08-02T06:36:27.386Z,68.50
2017-08-02T06:38:53.889Z,68.30
2017-08-02T06:41:20.522Z,72.00
2017-08-02T06:43:47.097Z,72.80
2017-08-02T06:46:13.662Z,72.20
2017-08-02T06:48:40.416Z,72.30
2017-08-02T06:51:06.966Z,71.20
2017-08-02T06:53:34.324Z,70.60
2017-08-02T06:56:01.279Z,70.70
2017-08-02T06:58:27.871Z,69.40
2017-08-02T07:00:54.319Z,69.70
2017-08-02T07:03:20.902Z,70.40
2017-08-02T07:05:47.365Z,69.30
2017-08-02T07:08:14.142Z,68.50
2017-08-02T07:10:40.642Z,68.60
2017-08-02T07:13:08.651Z,67.70
2017-08-02T07:15:35.218Z,67.70
2017-08-02T07:18:01.834Z,67.80
2017-08-02T07:20:28.285Z,70.10
2017-08-02T07:22:54.931Z,68.10
2017-08-02T07:25:21.508Z,67.80
2017-08-02T07:27:49.116Z,66.80
2017-08-02T07:30:15.615Z,66.20
2017-08-02T07:32:42.131Z,66.20
2017-08-02T07:35:09.722Z,65.30
2017-08-02T07:37:36.913Z,61.30
2017-08-02T07:40:03.489Z,61.30
2017-08-02T07:42:30.245Z,60.50
2017-08-02T07:44:56.717Z,60.00
2017-08-02T07:47:23.547Z,60.50
2017-08-02T07:49:50.298Z,61.90
2017-08-02T07:52:16.789Z,60.30
2017-08-02T07:54:43.266Z,61.20
2017-08-02T07:57:09.750Z,59.30
2017-08-02T07:59:36.230Z,59.00
2017-08-02T08:02:02.735Z,58.10
2017-08-02T08:04:30.266Z,57.10
2017-08-02T08:06:56.756Z,56.20
2017-08-02T08:09:23.289Z,57.10
2017-08-02T08:11:49.820Z,55.80
2017-08-02T08:14:16.270Z,54.10
2017-08-02T08:16:42.790Z,54.30
2017-08-02T08:19:09.290Z,52.20
2017-08-02T08:21:35.767Z,53.70
2017-08-02T08:24:02.247Z,54.10
2017-08-02T08:26:28.758Z,53.20
2017-08-02T08:28:55.384Z,53.20
2017-08-02T08:31:21.898Z,52.50
2017-08-02T08:33:52.105Z,51.90
2017-08-02T08:36:18.525Z,51.70
2017-08-02T08:38:45.177Z,51.80
2017-08-02T08:41:11.653Z,50.10
2017-08-02T08:43:38.210Z,50.60
2017-08-02T08:46:05.006Z,51.70
2017-08-02T08:48:34.697Z,51.00
2017-08-02T08:51:01.132Z,49.90
2017-08-02T08:53:27.609Z,51.80
2017-08-02T08:55:54.098Z,49.50
2017-08-02T08:58:21.405Z,49.70
2017-08-02T09:00:47.865Z,50.60
2017-08-02T09:03:17.589Z,51.00
2017-08-02T09:05:44.077Z,50.20
2017-08-02T09:08:10.521Z,51.50
2017-08-02T09:10:37.010Z,51.00
2017-08-02T09:13:03.504Z,48.60
2017-08-02T09:15:29.980Z,48.70
2017-08-02T09:18:01.179Z,48.00
2017-08-02T09:20:27.674Z,47.90
2017-08-02T09:22:54.948Z,48.60
2017-08-02T09:25:21.445Z,48.60
2017-08-02T09:27:47.940Z,48.60
2017-08-02T09:30:15.308Z,49.10
2017-08-02T09:32:41.794Z,49.00
2017-08-02T09:35:10.077Z,48.40
2017-08-02T09:37:36.671Z,49.50
2017-08-02T09:40:03.201Z,49.70
2017-08-02T09:42:29.653Z,49.50
2017-08-02T09:44:56.201Z,45.60
2017-08-02T09:47:22.706Z,47.00
2017-08-02T09:49:49.218Z,46.30
2017-08-02T09:52:15.767Z,45.30
2017-08-02T09:54:45.185Z,45.60
2017-08-02T09:57:11.750Z,46.10
2017-08-02T09:59:38.462Z,45.60
2017-08-02T10:02:04.996Z,44.60
2017-08-02T10:04:31.477Z,41.30
2017-08-02T10:06:58.698Z,39.70
2017-08-02T10:09:29.148Z,39.50
2017-08-02T10:11:56.061Z,42.50
2017-08-02T10:14:22.680Z,37.80
2017-08-02T10:16:49.262Z,36.10
2017-08-02T10:19:15.806Z,37.60
2017-08-02T10:21:42.326Z,36.70
2017-08-02T10:24:10.737Z,35.60
2017-08-02T10:26:37.265Z,34.70
2017-08-02T10:29:03.786Z,34.10
2017-08-02T10:31:35.597Z,36.40
2017-08-02T10:34:02.083Z,34.80
2017-08-02T10:36:32.090Z,33.00
2017-08-02T10:38:58.584Z,32.60
2017-08-02T10:41:25.104Z,35.40
2017-08-02T10:43:51.592Z,32.00
2017-08-02T10:46:18.079Z,33.20
2017-08-02T10:48:45.591Z,33.10
2017-08-02T10:51:12.275Z,33.10
2017-08-02T10:53:41.914Z,31.30
2017-08-02T10:56:09.646Z,29.70
2017-08-02T10:58:36.324Z,29.50
2017-08-02T11:01:02.754Z,29.70
2017-08-02T11:03:29.079Z,29.90
2017-08-02T11:05:55.649Z,31.10
2017-08-02T11:08:22.216Z,30.80
2017-08-02T11:10:48.877Z,30.90
2017-08-02T11:13:17.367Z,29.20
2017-08-02T11:15:44.451Z,29.40
2017-08-02T11:18:11.087Z,30.40
2017-08-02T11:20:37.638Z,31.70
2017-08-02T11:23:04.191Z,32.00
2017-08-02T11:25:30.703Z,31.90
2017-08-02T11:27:57.274Z,30.80
2017-08-02T11:30:26.198Z,31.60
2017-08-02T11:32:52.832Z,31.00
2017-08-02T11:35:19.361Z,33.50
2017-08-02T11:37:46.841Z,31.50
2017-08-02T11:40:13.423Z,30.40
2017-08-02T11:42:41.234Z,30.40
2017-08-02T11:47:40.063Z,32.80
2017-08-02T11:50:06.569Z,30.50
2017-08-02T11:52:33.093Z,30.40
2017-08-02T11:55:06.622Z,30.20
2017-08-02T11:57:33.069Z,30.10
2017-08-02T12:00:02.234Z,29.10
2017-08-02T12:02:28.614Z,31.20
2017-08-02T12:04:55.133Z,29.40
2017-08-02T12:07:21.467Z,30.20
2017-08-02T12:09:47.762Z,34.10
2017-08-02T12:12:14.181Z,31.30
2017-08-02T12:14:40.907Z,29.10
2017-08-02T12:17:07.343Z,29.60
2017-08-02T12:19:37.941Z,30.70
2017-08-02T12:22:04.209Z,30.60
2017-08-02T12:24:31.392Z,30.40
2017-08-02T12:26:57.775Z,30.50
2017-08-02T12:29:24.061Z,33.40
2017-08-02T12:31:51.499Z,32.50
2017-08-02T12:34:17.849Z,32.50
2017-08-02T12:36:44.193Z,31.10
2017-08-02T12:39:10.567Z,32.00
2017-08-02T12:41:39.249Z,31.40
2017-08-02T12:44:05.787Z,31.90
2017-08-02T12:46:32.360Z,32.00
2017-08-02T12:48:58.787Z,32.00
2017-08-02T12:51:25.203Z,31.50
2017-08-02T12:53:52.230Z,29.40
2017-08-02T12:56:18.616Z,29.20
2017-08-02T12:58:45.028Z,29.80
2017-08-02T13:01:11.587Z,29.10
2017-08-02T13:03:38.019Z,29.70
2017-08-02T13:06:04.437Z,28.50
2017-08-02T13:08:30.809Z,28.80
2017-08-02T13:10:57.486Z,30.40
2017-08-02T13:13:24.527Z,28.40
2017-08-02T13:15:51.031Z,31.30
2017-08-02T13:18:19.342Z,29.00
2017-08-02T13:20:46.727Z,30.30
2017-08-02T13:23:13.352Z,30.40
2017-08-02T13:25:39.933Z,30.00
2017-08-02T13:28:07.523Z,30.70
2017-08-02T13:30:34.206Z,30.80
2017-08-02T13:33:02.158Z,31.30
2017-08-02T13:35:28.807Z,30.90
2017-08-02T13:37:55.879Z,32.80
2017-08-02T13:40:22.741Z,31.80
2017-08-02T13:42:50.055Z,32.50
2017-08-02T13:45:16.496Z,32.50
2017-08-02T13:47:42.907Z,31.50
2017-08-02T13:50:09.275Z,31.60
2017-08-02T13:52:38.374Z,31.20
2017-08-02T13:55:05.110Z,32.00
2017-08-02T13:57:31.642Z,31.30
2017-08-02T13:59:58.376Z,31.80
2017-08-02T14:02:25.227Z,31.50
2017-08-02T14:04:51.773Z,31.10
2017-08-02T14:07:20.638Z,31.70
2017-08-02T14:09:47.169Z,32.00
2017-08-02T14:12:22.772Z,33.80
2017-08-02T14:14:49.347Z,33.50
2017-08-02T14:17:26.372Z,32.40
2017-08-02T14:19:57.848Z,32.80
2017-08-02T14:22:26.621Z,33.10
2017-08-02T14:24:53.061Z,34.30
2017-08-02T14:27:24.205Z,34.20
2017-08-02T14:29:50.818Z,34.00
2017-08-02T14:32:17.095Z,34.50
2017-08-02T14:34:43.427Z,33.70
2017-08-02T14:37:09.883Z,34.20
2017-08-02T14:39:36.530Z,34.50
2017-08-02T14:42:03.166Z,35.00
2017-08-02T14:44:29.459Z,35.00
2017-08-02T14:46:59.639Z,33.20
2017-08-02T14:49:25.950Z,35.10
2017-08-02T14:51:52.309Z,36.60
2017-08-02T14:54:18.778Z,35.40
2017-08-02T14:56:45.078Z,36.10
2017-08-02T14:59:11.561Z,35.20
2017-08-02T15:01:38.002Z,35.00
2017-08-02T15:04:04.478Z,35.60
2017-08-02T15:06:31.162Z,36.30
2017-08-02T15:08:57.475Z,38.50
2017-08-02T15:11:23.817Z,39.30
2017-08-02T15:13:50.379Z,39.70
2017-08-02T15:16:17.007Z,41.00
2017-08-02T15:18:43.357Z,41.80
2017-08-02T15:21:09.874Z,45.90
2017-08-02T15:23:37.403Z,46.50
2017-08-02T15:26:03.863Z,46.40
2017-08-02T15:28:30.170Z,46.20
2017-08-02T15:30:57.271Z,49.90
2017-08-02T15:33:23.649Z,49.90
2017-08-02T15:35:49.988Z,51.40
2017-08-02T15:38:16.459Z,50.30
2017-08-02T15:40:43.581Z,52.10
2017-08-02T15:43:10.668Z,56.50
2017-08-02T15:45:37.024Z,56.70
2017-08-02T15:48:03.345Z,57.40
2017-08-02T15:50:29.648Z,56.00
2017-08-02T15:52:56.197Z,55.70
2017-08-02T15:55:23.454Z,56.70
2017-08-02T15:57:49.856Z,56.50
2017-08-02T16:00:20.010Z,58.70
2017-08-02T16:02:46.880Z,58.70
2017-08-02T16:05:13.325Z,55.70
2017-08-02T16:07:39.590Z,58.90
2017-08-02T16:10:05.968Z,59.40
2017-08-02T16:12:32.611Z,59.70
2017-08-02T16:14:59.263Z,58.90
2017-08-02T16:17:25.708Z,59.60
2017-08-02T16:19:52.008Z,56.90
2017-08-02T16:22:18.311Z,59.60
2017-08-02T16:24:44.603Z,60.40
2017-08-02T16:27:11.012Z,60.30
2017-08-02T16:29:38.359Z,58.60
2017-08-02T16:32:04.807Z,58.50
2017-08-02T16:34:31.123Z,58.50
2017-08-02T16:36:57.483Z,58.50
2017-08-02T16:39:23.799Z,55.70
2017-08-02T16:41:50.191Z,58.50
2017-08-02T16:44:16.542Z,56.40
2017-08-02T16:46:43.001Z,54.50
2017-08-02T16:49:09.408Z,57.80
2017-08-02T16:51:35.692Z,56.90
2017-08-02T16:54:01.994Z,57.40
2017-08-02T16:56:28.288Z,57.80
2017-08-02T16:58:56.886Z,58.60
2017-08-02T17:01:23.203Z,56.70
2017-08-02T17:03:49.485Z,55.30
2017-08-02T17:06:15.829Z,56.80
2017-08-02T17:08:42.105Z,57.20
2017-08-02T17:11:08.474Z,57.40
2017-08-02T17:13:34.764Z,58.00
2017-08-02T17:16:01.179Z,55.00
2017-08-02T17:18:27.493Z,57.20
2017-08-02T17:20:54.048Z,56.20
2017-08-02T17:23:20.554Z,52.50
2017-08-02T17:25:47.019Z,54.10
2017-08-02T17:28:14.253Z,54.30
2017-08-02T17:30:40.630Z,54.30
2017-08-02T17:33:07.940Z,53.80
2017-08-02T17:35:34.245Z,53.80
2017-08-02T17:38:00.780Z,53.50
2017-08-02T17:40:27.328Z,53.20
2017-08-02T17:42:53.858Z,52.20
2017-08-02T17:45:21.093Z,51.40
2017-08-02T17:47:47.610Z,51.30
2017-08-02T17:50:14.162Z,52.20
2017-08-02T17:52:40.746Z,53.50
2017-08-02T17:55:08.031Z,53.20
2017-08-02T17:57:34.374Z,53.00
2017-08-02T18:00:00.889Z,53.70
2017-08-02T18:02:27.537Z,53.20
2017-08-02T18:04:54.046Z,52.50
2017-08-02T18:07:20.593Z,52.80
2017-08-02T18:09:47.100Z,52.70
2017-08-02T18:12:13.630Z,52.60
2017-08-02T18:14:40.808Z,51.20
2017-08-02T18:17:07.145Z,52.80
2017-08-02T18:19:33.630Z,52.90
2017-08-02T18:22:00.114Z,52.50
2017-08-02T18:24:26.620Z,51.50
2017-08-02T18:26:53.122Z,53.10
2017-08-02T18:29:19.788Z,52.90
2017-08-02T18:31:46.259Z,52.80
2017-08-02T18:34:12.943Z,53.80
2017-08-02T18:36:39.441Z,53.10
2017-08-02T18:39:05.968Z,52.70
2017-08-02T18:41:32.535Z,54.40
2017-08-02T18:43:59.019Z,55.60
2017-08-02T18:46:25.578Z,57.60
2017-08-02T18:48:52.047Z,57.50
2017-08-02T18:51:18.568Z,57.90
2017-08-02T18:53:45.057Z,57.70
2017-08-02T18:56:11.556Z,58.30
2017-08-02T18:58:38.077Z,58.10
2017-08-02T19:01:05.346Z,60.10
2017-08-02T19:03:31.962Z,60.00
2017-08-02T19:05:58.599Z,59.20
2017-08-02T19:08:25.175Z,60.00
2017-08-02T19:10:51.722Z,61.80
2017-08-02T19:13:18.239Z,61.70
2017-08-02T19:15:45.482Z,63.20
2017-08-02T19:18:12.126Z,63.10
2017-08-02T19:20:39.392Z,64.50
2017-08-02T19:23:05.932Z,64.80
2017-08-02T19:25:32.633Z,65.90
2017-08-02T19:27:59.072Z,67.10
2017-08-02T19:30:25.698Z,68.00
2017-08-02T19:32:59.093Z,68.00
2017-08-02T19:35:25.614Z,70.80
2017-08-02T19:37:51.956Z,70.40
2017-08-02T19:40:19.200Z,72.70
2017-08-02T19:42:45.498Z,72.70
2017-08-02T19:45:11.924Z,72.60
2017-08-02T19:47:39.008Z,72.70
2017-08-02T19:50:05.296Z,72.50
2017-08-02T19:52:31.577Z,75.00
2017-08-02T19:54:57.874Z,75.30
2017-08-02T19:57:24.211Z,74.70
2017-08-02T19:59:50.569Z,76.70
2017-08-02T20:02:16.890Z,76.10
2017-08-02T20:04:43.223Z,76.30
2017-08-02T20:07:09.581Z,77.20
2017-08-02T20:09:36.603Z,76.70
2017-08-02T20:12:02.883Z,76.40
2017-08-02T20:14:29.161Z,76.50
2017-08-02T20:16:55.446Z,75.90
2017-08-02T20:19:21.822Z,75.70
2017-08-02T20:21:48.137Z,77.70
2017-08-02T20:24:14.405Z,77.70
2017-08-02T20:26:40.700Z,77.70
2017-08-02T20:29:07.186Z,77.70
2017-08-02T20:31:33.690Z,75.30
2017-08-02T20:34:00.181Z,76.40
2017-08-02T20:36:26.714Z,77.20
2017-08-02T20:38:53.238Z,77.20
2017-08-02T20:41:19.772Z,75.90
2017-08-02T20:43:46.305Z,75.90
2017-08-02T20:46:12.817Z,77.20
2017-08-02T20:48:39.344Z,77.70
2017-08-02T20:53:38.934Z,81.70
2017-08-02T20:56:05.185Z,81.40
2017-08-02T20:58:31.481Z,79.50
2017-08-02T21:00:57.796Z,77.30
2017-08-02T21:03:24.210Z,77.40
2017-08-02T21:05:50.491Z,76.50
2017-08-02T21:08:16.926Z,74.60
2017-08-02T21:10:43.234Z,77.20
2017-08-02T21:13:09.527Z,77.70
2017-08-02T21:15:36.281Z,78.70
2017-08-02T21:18:02.582Z,78.90
2017-08-02T21:20:28.914Z,78.70
2017-08-02T21:22:55.434Z,79.70
2017-08-02T21:25:21.966Z,78.80
2017-08-02T21:27:48.572Z,78.90
2017-08-02T21:30:15.281Z,79.60
2017-08-02T21:32:42.326Z,79.60
2017-08-02T21:35:08.833Z,80.30
2017-08-02T21:37:35.391Z,80.10
2017-08-02T21:40:02.722Z,82.00
2017-08-02T21:42:29.223Z,81.10
2017-08-02T21:44:56.562Z,84.60
2017-08-02T21:47:23.273Z,84.50
2017-08-02T21:49:50.047Z,85.90
2017-08-02T21:52:16.827Z,84.50
2017-08-02T21:54:43.882Z,83.60
2017-08-02T21:57:12.194Z,82.00
2017-08-02T21:59:39.170Z,82.00
2017-08-02T22:02:05.723Z,83.00
2017-08-02T22:04:32.257Z,82.20
2017-08-02T22:06:58.967Z,83.20
2017-08-02T22:09:25.529Z,83.00
2017-08-02T22:11:52.078Z,82.20
2017-08-02T22:14:18.794Z,82.10
2017-08-02T22:16:45.559Z,85.10
2017-08-02T22:19:12.241Z,86.20
2017-08-02T22:21:39.142Z,85.70
2017-08-02T22:24:05.841Z,88.20
2017-08-02T22:26:32.515Z,86.90
2017-08-02T22:28:59.161Z,84.80
2017-08-02T22:31:26.420Z,83.60
2017-08-02T22:33:53.165Z,83.60
2017-08-02T22:36:19.666Z,82.40
2017-08-02T22:38:46.242Z,82.30
2017-08-02T22:41:13.069Z,82.30
2017-08-02T22:43:39.594Z,83.30
2017-08-02T22:46:06.108Z,83.90
2017-08-02T22:48:32.659Z,82.40
2017-08-02T22:50:59.701Z,83.30
2017-08-02T22:53:26.242Z,82.40
2017-08-02T22:55:52.721Z,81.80
2017-08-02T22:58:19.217Z,85.50
2017-08-02T23:00:45.835Z,86.40
2017-08-02T23:03:12.328Z,87.40
2017-08-02T23:05:39.558Z,82.90
2017-08-02T23:08:06.143Z,82.80
2017-08-02T23:10:32.815Z,83.50
2017-08-02T23:12:59.255Z,83.60
2017-08-02T23:15:25.783Z,82.50
2017-08-02T23:17:52.253Z,80.60
2017-08-02T23:20:18.819Z,84.20
2017-08-02T23:22:45.321Z,84.60
2017-08-02T23:25:11.882Z,82.50
2017-08-02T23:27:38.373Z,81.60
2017-08-02T23:30:04.962Z,81.00
2017-08-02T23:32:31.553Z,80.20
2017-08-02T23:34:58.177Z,79.70
2017-08-02T23:37:24.860Z,79.70
2017-08-02T23:39:51.397Z,79.90
2017-08-02T23:42:18.685Z,80.20
2017-08-02T23:44:45.263Z,80.10
2017-08-02T23:47:11.895Z,79.30
2017-08-02T23:49:38.451Z,78.70
2017-08-02T23:52:04.984Z,79.30
2017-08-02T23:54:31.651Z,79.80
2017-08-02T23:56:58.938Z,79.20
2017-08-02T23:59:25.559Z,79.10
